MENU

POPULAR MANGA

Mob Psycho 100 CHAPTER LIST
  • Mob Psycho 100

    Alternative : モブサイコ100 (Japanese); 灵能百分百 (Chinese); One Hundred Mob Psycho; OneHundred MobPsycho; Mob 100 (English)
  • Author(s) : One,
  • Status : Ongoing
  • Last updated : Oct-07-2017 16:55:31 PM
  • TransGroup :
  • View : 1,405,092
  • Genres : Action, Comedy, Psychological, School life, Shounen, Slice of life, Supernatural,
  • Rating :
  •   Mangakakalot.com rate : 4.93/ 5 - 72 votes

Mob Psycho 100 summary:

Kageyama Shigeo (a.k.a. "Mob") is a 8th grader with psychic abilities. He could bend spoons and lift objects with his mind from a young age, but he slowly began to withhold from using his abilities in public due to the negative attention he kept receiving. Now, the only thing he wants is to become friends with a girl in his class, Tsubomi. With his psychic "mentor" (who has no psychic powers), he continues his daily life, attempting to realize his purpose in life.
Maybe coming in the next issue
Mob Psycho 100 chapter 101112
Mob Psycho 100 chapter 101113
Chapter name View Time uploaded
chapter 101.1 4,339 10-07 16:52
chapter 100.13 4,085 10-07 16:55
chapter 100.12 2,430 10-07 16:53
chapter 100.11 1,969 10-07 16:51
chapter 100.10 1,863 10-07 16:55
chapter 100.9 1,676 10-07 16:48
chapter 109 15,361 10-07 16:48
chapter 100.8 1,513 10-07 16:47
chapter 100.7 7,432 08-25 15:57
chapter 100.6 14,177 07-31 01:47
chapter 100.5 12,455 07-18 06:47
chapter 100.4 12,965 07-03 04:50
chapter 100.2 10,706 06-20 11:06
chapter 100.1 13,740 06-09 15:34
chapter 100 : Ch.99.4 14,234 05-31 04:13
chapter 99.9 : Ch.99.3 8,838 05-30 21:23
chapter 99.7 : Ch 99.1 Mob 12,058 05-08 21:16
chapter 99.6 : Ch. 98.12 10,502 04-17 02:15
chapter 99.5 : c.98k 9,994 04-07 04:45
chapter 99.4 : Ch.98.10 9,938 04-01 01:15
chapter 99.3 : ch98.9 9,481 03-26 21:22
chapter 99.2 : Ch.98.8 8,442 03-26 21:22
chapter 99.1 : Ch.98.7 10,375 03-06 01:50
chapter 99 : Ch.98.6 12,711 02-26 23:20
chapter 98.9 : c.98 Omakes 9,289 02-20 02:47
chapter 98.8 : Ch.98.5 9,536 02-13 23:33
chapter 98.7 : Ch.98.4 8,699 02-10 11:17
chapter 98.6 : Ch.98.3 8,880 02-06 01:17
chapter 98.5 : Ch.98.2 9,070 02-06 01:17
chapter 98.3 : Ch.97.13 9,998 01-08 22:16
chapter 98.2 : Ch.97.12 10,040 12-26 00:31
chapter 98.1 : Ch.97.11 10,176 12-19 01:32
chapter 98 : Ch.97.10 16,810 12-18 18:31
chapter 97.9 9,068 12-03 00:52
chapter 97.8 7,919 11-28 11:37
chapter 97.7 6,676 11-19 13:52
chapter 97.6 6,043 11-05 20:37
chapter 97.5 5,900 10-28 22:42
chapter 97.4 5,905 10-22 19:07
chapter 97.3 : [Nerieru-Scans] 5,852 10-22 18:27
chapter 97.2 5,689 10-08 09:11
chapter 97.1 : Dimple is 6,404 10-02 11:11
chapter 96.7 4,918 10-01 17:31
chapter 96.6 4,980 09-10 06:06
chapter 96.5 5,045 09-02 03:37
chapter 96.4 5,117 08-27 15:49
chapter 96.3 5,126 08-04 23:43
chapter 96.2 4,963 07-28 22:43
chapter 96.1 : Peace 5,203 07-22 02:18
chapter 96 4,856 07-22 02:18
chapter 95.4 4,822 07-14 19:53
chapter 95.3 4,660 07-12 14:25
chapter 95.2 5,152 07-02 21:48
chapter 95.1 5,052 06-25 10:52
chapter 94.2 5,354 06-04 16:31
chapter 94.1 : Carried Away 5,770 05-22 23:38
chapter 93.3 5,213 05-22 23:38
chapter 93.2 5,459 05-22 23:38
chapter 93.1 5,864 04-24 00:02
chapter 92.3 5,448 04-09 13:36
chapter 92.2 5,736 04-01 00:34
chapter 91.6 : 90-11 10,912 02-22 03:39
chapter 91.3 7,972 02-20 02:18
chapter 91.2 8,525 02-12 01:25
chapter 91.1 : 90-12 10,862 01-30 07:06
chapter 91 : 90-10 10,345 01-22 06:12
chapter 90.9 v2 8,179 01-22 06:12
chapter 90.9 7,522 01-20 09:29
chapter 90.8 7,632 01-20 09:29
chapter 90.7 6,436 01-20 09:29
chapter 90.6 6,558 01-20 09:29
chapter 90.5 6,577 01-20 09:29
chapter 90.4 6,285 01-20 09:29
chapter 90.3 6,640 01-20 09:29
chapter 90.2 6,896 01-20 09:29
chapter 90 7,975 01-20 09:29
chapter 89.4 5,706 01-20 09:29
chapter 89.3 5,404 01-20 09:29
chapter 89.2 5,662 01-20 09:29
chapter 89.1 5,637 01-20 09:29
chapter 88.3 5,509 01-20 09:29
chapter 88.2 5,705 01-20 09:29
chapter 88 5,833 01-20 09:29
chapter 87.4 5,398 01-20 09:29
chapter 87.3 5,351 01-20 09:29
chapter 87.2 5,259 01-20 09:29
chapter 87.1 5,599 01-20 09:29
chapter 86.2 5,498 01-20 09:29
chapter 86.1 5,475 01-20 09:29
chapter 85.2 6,275 01-20 09:29
chapter 84.2 5,750 01-20 09:29
chapter 84.1 5,335 01-20 09:29
chapter 83.2 5,497 01-20 09:29
chapter 83.1 5,612 01-20 09:29
chapter 82.2 5,571 01-20 09:29
chapter 82 : Clash 6,015 01-20 09:29
chapter 81.2 5,387 01-20 09:29
chapter 81.1 5,651 01-20 09:29
chapter 80.5 5,184 01-20 09:29
chapter 80 : Inner Conflict 6,097 01-20 09:29
chapter 79.2 5,463 01-20 09:29
chapter 79.1 5,884 01-20 09:29
chapter 78.5 : Read Online 5,216 01-20 09:29
chapter 78.2 : Read Online 5,430 01-20 09:29
chapter 78 : Gathering 5,744 01-20 09:29
chapter 77.6 5,027 01-20 09:29
chapter 77.5 5,397 01-20 09:29
chapter 77 : Show It 5,883 01-20 09:29
chapter 76 : Fire 5,825 01-20 09:29
chapter 75 : Even So 5,636 01-20 09:29
chapter 74.4 : Anthology 2 c.6 4,986 01-20 09:29
chapter 74 : Forward 6,051 01-20 09:29
chapter 73.5 : It's There 5,576 01-20 09:29
chapter 73 : True Character 5,803 01-20 09:29
chapter 72 : Finishing Off 5,701 01-20 09:29
chapter 71.5 : Impulsive 5,752 01-20 09:29
chapter 71 : Overhyped 5,654 01-20 09:29
chapter 70 : The Lonely Whitey 5,700 01-20 09:29
chapter 69 : He Doesn't Care 5,850 01-20 09:29
chapter 68 5,960 01-20 09:29
chapter 67.5 6,511 01-20 09:29
chapter 67.3 : Rightness (3) 6,515 01-20 09:29
chapter 67.2 : Rightness (2) 6,204 01-20 09:29
chapter 67.1 : Rightness (1) 6,156 01-20 09:29
chapter 66 : Voice 6,160 01-20 09:29
chapter 65.5 5,457 01-20 09:29
chapter 65.2 5,540 01-20 09:29
chapter 65.1 : Friction 6,139 01-20 09:29
chapter 65 6,320 01-20 09:29
chapter 64.2 5,715 01-20 09:29
chapter 64.1 : World 5,889 01-20 09:29
chapter 63.3 5,823 01-20 09:29
chapter 63.2 : Last Resort (2) 5,977 01-20 09:29
chapter 63.1 : Last Resort 5,777 01-20 09:29
chapter 62 : Morphing 5,856 01-20 09:29
chapter 61.2 5,812 01-20 09:29
chapter 61.1 : Evil Spirit 5,920 01-20 09:29
chapter 60.5 5,438 01-20 09:29
chapter 60 : True Identity 5,974 01-20 09:29
chapter 59 : Big Mouth 5,563 01-20 09:29
chapter 58.5 5,484 01-20 09:29
chapter 58 : Creeping Danger 6,014 01-20 09:29
chapter 57 : Roots 6,108 01-20 09:29
chapter 56 : Solo Mission 6,037 01-20 09:29
chapter 55 : Don't Know 6,275 01-20 09:29
chapter 53 : Urban Legend 6,547 01-20 09:29
chapter 52.5 6,154 01-20 09:29
chapter 51.5 6,662 01-20 09:29
chapter 50 : No Changes 7,007 01-20 09:29
chapter 49 : Putting an End 5,703 01-20 09:29
chapter 48 : Overwhelming 4,883 01-20 09:29
chapter 47 : Rental 4,549 01-20 09:29
chapter 46 : Master 4,750 01-20 09:29
chapter 45 : Leader 3,641 01-20 09:29
chapter 44 : Respect 3,539 01-20 09:29
chapter 43 : Evil Aura 3,547 01-20 09:29
chapter 42 : Phone Call 3,362 01-20 09:29
chapter 41 : Who 3,199 01-20 09:29
chapter 40 : Pyrokinetic 3,344 01-20 09:29
chapter 39 : The Awakened 3,127 01-20 09:29
chapter 37 : Team 3,240 01-20 09:29
chapter 36 : Ways of Usage 3,007 01-20 09:29
chapter 35 : Up Up 3,158 01-20 09:29
chapter 34 : Claw 3,404 01-20 09:29
chapter 33 : Ura vs Ura 3,565 01-20 09:29
chapter 32 : Will to Destroy 3,038 01-20 09:29
chapter 31 : Mature 3,057 01-20 09:29
chapter 30 : Brotherly Love 3,267 01-20 09:29
chapter 28 : Off-Tune 2,983 01-20 09:29
chapter 27 : Discord 2,905 01-20 09:29
chapter 26 : In High Spirits 3,124 01-20 09:29
chapter 25 : O X Relationship 3,363 01-20 09:29
chapter 24 : Hated 3,210 01-20 09:29
chapter 22 : Awakening Lab 3,330 01-20 09:29
chapter 20 : Student Council 3,322 01-20 09:29
chapter 19 : Conclusion 3,421 01-20 09:29
chapter 18 : Unidentifiable 3,466 01-20 09:29
chapter 17.1 : The Fake Pot 3,522 01-20 09:29
chapter 16 : Ochimusha 3,494 01-20 09:29
chapter 14 : Same Kind 3,481 01-20 09:29
chapter 11 : Idiot-Only Event 3,419 01-20 09:28
chapter 10 : The Gifted One 3,415 01-20 09:28
chapter 8 : Break Down 3,975 01-20 09:28
chapter 7 : Sheeple 3,869 01-20 09:28
chapter 6 : The Invitation 3,798 01-20 09:28
chapter 4 : For Oneself 4,339 01-20 09:28
chapter 2 : A Naive Question 6,982 01-20 09:28